sensor_id;sensor_type;location;lat;lon;timestamp;pressure;altitude;pressure_sealevel;temperature;humidity
75460;BME280;64039;53.060;9.342;2023-04-29T00:00:09;100644.03;;;9.18;100.00
75460;BME280;64039;53.060;9.342;2023-04-29T00:02:35;100651.72;;;9.13;100.00
75460;BME280;64039;53.060;9.342;2023-04-29T00:05:00;100649.97;;;9.12;100.00
75460;BME280;64039;53.060;9.342;2023-04-29T00:07:29;100654.31;;;9.13;100.00
75460;BME280;64039;53.060;9.342;2023-04-29T00:09:57;100656.16;;;9.18;100.00
75460;BME280;64039;53.060;9.342;2023-04-29T00:12:22;100649.25;;;9.20;100.00
75460;BME280;64039;53.060;9.342;2023-04-29T00:14:48;100649.34;;;9.23;100.00
75460;BME280;64039;53.060;9.342;2023-04-29T00:17:13;100646.84;;;9.27;100.00
75460;BME280;64039;53.060;9.342;2023-04-29T00:19:39;100656.22;;;9.21;100.00
75460;BME280;64039;53.060;9.342;2023-04-29T00:22:05;100659.47;;;9.12;100.00
75460;BME280;64039;53.060;9.342;2023-04-29T00:24:30;100657.81;;;9.14;100.00
75460;BME280;64039;53.060;9.342;2023-04-29T00:26:56;100661.19;;;9.11;100.00
75460;BME280;64039;53.060;9.342;2023-04-29T00:29:21;100661.88;;;9.04;100.00
75460;BME280;64039;53.060;9.342;2023-04-29T00:31:48;100660.09;;;9.02;100.00
75460;BME280;64039;53.060;9.342;2023-04-29T00:34:13;100668.72;;;9.01;100.00
75460;BME280;64039;53.060;9.342;2023-04-29T00:36:39;100665.97;;;8.94;100.00
75460;BME280;64039;53.060;9.342;2023-04-29T00:39:04;100665.03;;;8.92;100.00
75460;BME280;64039;53.060;9.342;2023-04-29T00:41:29;100671.88;;;8.89;100.00
75460;BME280;64039;53.060;9.342;2023-04-29T00:43:56;100665.84;;;8.90;100.00
75460;BME280;64039;53.060;9.342;2023-04-29T00:46:21;100675.44;;;8.92;100.00
75460;BME280;64039;53.060;9.342;2023-04-29T00:48:47;100686.34;;;8.79;100.00
75460;BME280;64039;53.060;9.342;2023-04-29T00:51:13;100691.66;;;8.84;100.00
75460;BME280;64039;53.060;9.342;2023-04-29T00:53:39;100692.38;;;8.78;100.00
75460;BME280;64039;53.060;9.342;2023-04-29T00:56:05;100695.13;;;8.84;100.00
75460;BME280;64039;53.060;9.342;2023-04-29T00:58:32;100699.38;;;8.82;100.00
75460;BME280;64039;53.060;9.342;2023-04-29T01:01:02;100702.91;;;8.84;100.00
75460;BME280;64039;53.060;9.342;2023-04-29T01:03:29;100698.47;;;8.80;100.00
75460;BME280;64039;53.060;9.342;2023-04-29T01:06:16;100702.91;;;8.84;100.00
75460;BME280;64039;53.060;9.342;2023-04-29T01:11:21;100710.56;;;8.79;100.00
75460;BME280;64039;53.060;9.342;2023-04-29T01:13:58;100722.53;;;8.74;100.00
75460;BME280;64039;53.060;9.342;2023-04-29T01:16:36;100726.63;;;8.64;100.00
75460;BME280;64039;53.060;9.342;2023-04-29T01:21:57;100730.66;;;8.55;100.00
75460;BME280;64039;53.060;9.342;2023-04-29T01:24:23;100737.38;;;8.48;100.00
75460;BME280;64039;53.060;9.342;2023-04-29T01:26:55;100738.22;;;8.47;100.00
75460;BME280;64039;53.060;9.342;2023-04-29T01:31:58;100738.00;;;8.41;100.00
75460;BME280;64039;53.060;9.342;2023-04-29T01:34:38;100744.81;;;8.37;100.00
75460;BME280;64039;53.060;9.342;2023-04-29T01:37:18;100748.81;;;8.26;100.00
75460;BME280;64039;53.060;9.342;2023-04-29T01:42:47;100757.97;;;8.13;100.00
75460;BME280;64039;53.060;9.342;2023-04-29T01:45:17;100760.63;;;8.16;100.00
75460;BME280;64039;53.060;9.342;2023-04-29T01:47:45;100763.78;;;8.06;100.00
75460;BME280;64039;53.060;9.342;2023-04-29T01:50:11;100762.31;;;8.14;100.00
75460;BME280;64039;53.060;9.342;2023-04-29T01:52:37;100760.63;;;8.16;100.00
75460;BME280;64039;53.060;9.342;2023-04-29T01:55:03;100766.69;;;8.16;100.00
75460;BME280;64039;53.060;9.342;2023-04-29T01:57:28;100772.63;;;8.12;100.00
75460;BME280;64039;53.060;9.342;2023-04-29T01:59:54;100775.50;;;8.22;100.00
75460;BME280;64039;53.060;9.342;2023-04-29T02:02:19;100779.56;;;8.13;100.00
75460;BME280;64039;53.060;9.342;2023-04-29T02:04:47;100783.25;;;8.22;100.00
75460;BME280;64039;53.060;9.342;2023-04-29T02:07:13;100781.44;;;8.17;100.00
75460;BME280;64039;53.060;9.342;2023-04-29T02:09:39;100781.19;;;8.10;100.00
75460;BME280;64039;53.060;9.342;2023-04-29T02:12:04;100793.50;;;8.17;100.00
75460;BME280;64039;53.060;9.342;2023-04-29T02:14:30;100792.53;;;8.13;100.00
75460;BME280;64039;53.060;9.342;2023-04-29T02:16:55;100801.78;;;8.05;100.00
75460;BME280;64039;53.060;9.342;2023-04-29T02:19:21;100810.31;;;8.01;100.00
75460;BME280;64039;53.060;9.342;2023-04-29T02:21:46;100811.06;;;7.98;100.00
75460;BME280;64039;53.060;9.342;2023-04-29T02:24:12;100808.59;;;8.01;100.00
75460;BME280;64039;53.060;9.342;2023-04-29T02:26:37;100817.09;;;7.97;100.00
75460;BME280;64039;53.060;9.342;2023-04-29T02:29:03;100820.81;;;8.06;100.00
75460;BME280;64039;53.060;9.342;2023-04-29T02:31:28;100825.78;;;7.99;100.00
75460;BME280;64039;53.060;9.342;2023-04-29T02:33:54;100822.31;;;7.99;100.00
75460;BME280;64039;53.060;9.342;2023-04-29T02:36:20;100824.03;;;7.98;100.00
75460;BME280;64039;53.060;9.342;2023-04-29T02:38:45;100829.13;;;7.95;100.00
75460;BME280;64039;53.060;9.342;2023-04-29T02:41:15;100827.31;;;7.93;100.00
75460;BME280;64039;53.060;9.342;2023-04-29T02:43:42;100830.00;;;7.96;100.00
75460;BME280;64039;53.060;9.342;2023-04-29T02:46:08;100838.53;;;7.92;100.00
75460;BME280;64039;53.060;9.342;2023-04-29T02:48:34;100840.16;;;7.90;100.00
75460;BME280;64039;53.060;9.342;2023-04-29T02:50:59;100851.50;;;7.93;100.00
75460;BME280;64039;53.060;9.342;2023-04-29T02:53:25;100848.78;;;7.89;100.00
75460;BME280;64039;53.060;9.342;2023-04-29T02:55:51;100848.88;;;7.92;100.00
75460;BME280;64039;53.060;9.342;2023-04-29T02:58:16;100858.78;;;7.78;100.00
75460;BME280;64039;53.060;9.342;2023-04-29T03:00:42;100861.34;;;7.76;100.00
75460;BME280;64039;53.060;9.342;2023-04-29T03:03:08;100858.03;;;7.82;100.00
75460;BME280;64039;53.060;9.342;2023-04-29T03:05:33;100865.59;;;7.74;100.00
75460;BME280;64039;53.060;9.342;2023-04-29T03:07:59;100868.19;;;7.74;100.00
75460;BME280;64039;53.060;9.342;2023-04-29T03:10:25;100870.03;;;7.78;100.00
75460;BME280;64039;53.060;9.342;2023-04-29T03:12:50;100870.13;;;7.81;100.00
75460;BME280;64039;53.060;9.342;2023-04-29T03:15:16;100875.88;;;7.72;100.00
75460;BME280;64039;53.060;9.342;2023-04-29T03:17:41;100873.81;;;7.62;100.00
75460;BME280;64039;53.060;9.342;2023-04-29T03:20:07;100885.06;;;7.63;100.00
75460;BME280;64039;53.060;9.342;2023-04-29T03:22:34;100879.88;;;7.63;100.00
75460;BME280;64039;53.060;9.342;2023-04-29T03:25:00;100886.97;;;7.68;100.00
75460;BME280;64039;53.060;9.342;2023-04-29T03:27:25;100889.53;;;7.67;100.00
75460;BME280;64039;53.060;9.342;2023-04-29T03:29:51;100884.34;;;7.67;100.00
75460;BME280;64039;53.060;9.342;2023-04-29T03:32:17;100883.56;;;7.69;100.00
75460;BME280;64039;53.060;9.342;2023-04-29T03:34:42;100896.47;;;7.68;100.00
75460;BME280;64039;53.060;9.342;2023-04-29T03:37:07;100892.31;;;7.73;100.00
75460;BME280;64039;53.060;9.342;2023-04-29T03:39:33;100903.81;;;7.81;100.00
75460;BME280;64039;53.060;9.342;2023-04-29T03:41:58;100902.06;;;7.80;100.00
75460;BME280;64039;53.060;9.342;2023-04-29T03:44:25;100897.50;;;7.73;100.00
75460;BME280;64039;53.060;9.342;2023-04-29T03:46:50;100898.16;;;7.67;100.00
75460;BME280;64039;53.060;9.342;2023-04-29T03:49:16;100905.41;;;7.76;100.00
75460;BME280;64039;53.060;9.342;2023-04-29T03:51:42;100909.00;;;7.81;100.00
75460;BME280;64039;53.060;9.342;2023-04-29T03:54:10;100908.41;;;7.90;100.00
75460;BME280;64039;53.060;9.342;2023-04-29T03:56:35;100915.44;;;7.93;100.00
75460;BME280;64039;53.060;9.342;2023-04-29T03:59:01;100921.22;;;7.85;100.00
75460;BME280;64039;53.060;9.342;2023-04-29T04:01:26;100921.97;;;7.81;100.00
75460;BME280;64039;53.060;9.342;2023-04-29T04:03:52;100933.13;;;7.79;100.00
75460;BME280;64039;53.060;9.342;2023-04-29T04:06:17;100925.84;;;7.68;100.00
75460;BME280;64039;53.060;9.342;2023-04-29T04:08:43;100936.38;;;7.49;100.00
75460;BME280;64039;53.060;9.342;2023-04-29T04:11:08;100941.47;;;7.46;100.00
75460;BME280;64039;53.060;9.342;2023-04-29T04:13:34;100946.56;;;7.44;100.00
75460;BME280;64039;53.060;9.342;2023-04-29T04:16:00;100951.88;;;7.47;100.00
75460;BME280;64039;53.060;9.342;2023-04-29T04:18:25;100954.25;;;7.41;100.00
75460;BME280;64039;53.060;9.342;2023-04-29T04:20:50;100948.94;;;7.38;100.00
75460;BME280;64039;53.060;9.342;2023-04-29T04:23:16;100962.72;;;7.37;100.00
75460;BME280;64039;53.060;9.342;2023-04-29T04:25:45;100965.03;;;7.29;100.00
75460;BME280;64039;53.060;9.342;2023-04-29T04:28:11;100970.38;;;7.34;100.00
75460;BME280;64039;53.060;9.342;2023-04-29T04:30:36;100967.69;;;7.31;100.00
75460;BME280;64039;53.060;9.342;2023-04-29T04:33:02;100973.69;;;7.30;100.00
75460;BME280;64039;53.060;9.342;2023-04-29T04:35:28;100973.72;;;7.31;100.00
75460;BME280;64039;53.060;9.342;2023-04-29T04:37:53;100969.28;;;7.27;100.00
75460;BME280;64039;53.060;9.342;2023-04-29T04:40:19;100981.56;;;7.33;100.00
75460;BME280;64039;53.060;9.342;2023-04-29T04:42:45;100982.38;;;7.32;100.00
75460;BME280;64039;53.060;9.342;2023-04-29T04:45:10;100985.03;;;7.33;100.00
75460;BME280;64039;53.060;9.342;2023-04-29T04:47:36;100992.16;;;7.39;100.00
75460;BME280;64039;53.060;9.342;2023-04-29T04:50:02;101000.47;;;7.30;100.00
75460;BME280;64039;53.060;9.342;2023-04-29T04:52:28;100994.91;;;7.44;100.00
75460;BME280;64039;53.060;9.342;2023-04-29T04:54:54;101006.63;;;7.34;100.00
75460;BME280;64039;53.060;9.342;2023-04-29T04:57:19;100998.28;;;7.41;100.00
75460;BME280;64039;53.060;9.342;2023-04-29T04:59:45;100998.28;;;7.41;100.00
75460;BME280;64039;53.060;9.342;2023-04-29T05:02:10;101003.50;;;7.43;100.00
75460;BME280;64039;53.060;9.342;2023-04-29T05:04:36;101005.13;;;7.40;100.00
75460;BME280;64039;53.060;9.342;2023-04-29T05:07:01;101007.84;;;7.44;100.00
75460;BME280;64039;53.060;9.342;2023-04-29T05:09:27;101018.88;;;7.38;100.00
75460;BME280;64039;53.060;9.342;2023-04-29T05:11:53;101027.63;;;7.42;100.00
75460;BME280;64039;53.060;9.342;2023-04-29T05:14:18;101022.28;;;7.37;100.00
75460;BME280;64039;53.060;9.342;2023-04-29T05:16:44;101036.00;;;7.34;100.00
75460;BME280;64039;53.060;9.342;2023-04-29T05:19:11;101044.38;;;7.51;100.00
75460;BME280;64039;53.060;9.342;2023-04-29T05:21:36;101044.28;;;7.48;100.00
75460;BME280;64039;53.060;9.342;2023-04-29T05:24:02;101057.59;;;7.58;100.00
75460;BME280;64039;53.060;9.342;2023-04-29T05:26:28;101056.03;;;7.63;100.00
75460;BME280;64039;53.060;9.342;2023-04-29T05:28:53;101058.66;;;7.64;100.00
75460;BME280;64039;53.060;9.342;2023-04-29T05:31:20;101057.94;;;7.67;100.00
75460;BME280;64039;53.060;9.342;2023-04-29T05:33:45;101063.97;;;7.67;100.00
75460;BME280;64039;53.060;9.342;2023-04-29T05:36:11;101067.47;;;7.68;100.00
75460;BME280;64039;53.060;9.342;2023-04-29T05:38:36;101062.56;;;7.76;100.00
75460;BME280;64039;53.060;9.342;2023-04-29T05:41:02;101065.09;;;7.74;100.00
75460;BME280;64039;53.060;9.342;2023-04-29T05:43:28;101070.06;;;7.68;100.00
75460;BME280;64039;53.060;9.342;2023-04-29T05:45:54;101078.75;;;7.70;100.00
75460;BME280;64039;53.060;9.342;2023-04-29T05:48:20;101083.31;;;7.77;100.00
75460;BME280;64039;53.060;9.342;2023-04-29T05:50:46;101077.97;;;7.95;100.00
75460;BME280;64039;53.060;9.342;2023-04-29T05:53:12;101086.38;;;7.90;100.00
75460;BME280;64039;53.060;9.342;2023-04-29T05:55:38;101089.16;;;7.94;100.00
75460;BME280;64039;53.060;9.342;2023-04-29T05:58:04;101088.31;;;8.19;100.00
75460;BME280;64039;53.060;9.342;2023-04-29T06:00:30;101089.97;;;8.17;100.00
75460;BME280;64039;53.060;9.342;2023-04-29T06:02:56;101083.50;;;8.30;100.00
75460;BME280;64039;53.060;9.342;2023-04-29T06:05:21;101086.94;;;8.29;100.00
75460;BME280;64039;53.060;9.342;2023-04-29T06:07:47;101090.28;;;8.51;100.00
75460;BME280;64039;53.060;9.342;2023-04-29T06:10:12;101089.78;;;8.61;100.00
75460;BME280;64039;53.060;9.342;2023-04-29T06:12:39;101098.38;;;8.60;100.00
75460;BME280;64039;53.060;9.342;2023-04-29T06:15:05;101088.63;;;8.79;100.00
75460;BME280;64039;53.060;9.342;2023-04-29T06:17:30;101098.63;;;8.94;100.00
75460;BME280;64039;53.060;9.342;2023-04-29T06:19:56;101093.63;;;8.73;100.00
75460;BME280;64039;53.060;9.342;2023-04-29T06:22:21;101103.44;;;8.83;100.00
75460;BME280;64039;53.060;9.342;2023-04-29T06:24:48;101107.13;;;8.90;100.00
75460;BME280;64039;53.060;9.342;2023-04-29T06:27:14;101115.88;;;8.92;100.00
75460;BME280;64039;53.060;9.342;2023-04-29T06:29:40;101118.66;;;8.98;100.00
75460;BME280;64039;53.060;9.342;2023-04-29T06:32:06;101125.25;;;9.14;100.00
75460;BME280;64039;53.060;9.342;2023-04-29T06:34:32;101121.56;;;9.36;100.00
75460;BME280;64039;53.060;9.342;2023-04-29T06:36:57;101120.97;;;9.43;100.00
75460;BME280;64039;53.060;9.342;2023-04-29T06:39:23;101122.09;;;9.53;100.00
75460;BME280;64039;53.060;9.342;2023-04-29T06:41:48;101120.84;;;9.40;100.00
75460;BME280;64039;53.060;9.342;2023-04-29T06:44:14;101125.69;;;9.57;100.00
75460;BME280;64039;53.060;9.342;2023-04-29T06:46:41;101137.84;;;9.58;100.00
75460;BME280;64039;53.060;9.342;2023-04-29T06:49:07;101141.53;;;9.37;100.00
75460;BME280;64039;53.060;9.342;2023-04-29T06:51:32;101147.56;;;9.36;100.00
75460;BME280;64039;53.060;9.342;2023-04-29T06:53:58;101157.19;;;9.39;100.00
75460;BME280;64039;53.060;9.342;2023-04-29T06:56:23;101152.72;;;9.35;100.00
75460;BME280;64039;53.060;9.342;2023-04-29T06:58:49;101158.44;;;9.24;100.00
75460;BME280;64039;53.060;9.342;2023-04-29T07:01:15;101170.38;;;9.18;100.00
75460;BME280;64039;53.060;9.342;2023-04-29T07:03:40;101179.47;;;9.32;100.00
75460;BME280;64039;53.060;9.342;2023-04-29T07:06:06;101179.69;;;9.12;100.00
75460;BME280;64039;53.060;9.342;2023-04-29T07:08:31;101173.94;;;9.21;100.00
75460;BME280;64039;53.060;9.342;2023-04-29T07:10:58;101182.56;;;9.20;100.00
75460;BME280;64039;53.060;9.342;2023-04-29T07:13:24;101194.41;;;9.12;100.00
75460;BME280;64039;53.060;9.342;2023-04-29T07:15:49;101198.78;;;9.13;100.00
75460;BME280;64039;53.060;9.342;2023-04-29T07:18:15;101197.84;;;9.11;100.00
75460;BME280;64039;53.060;9.342;2023-04-29T07:20:40;101200.81;;;9.23;100.00
75460;BME280;64039;53.060;9.342;2023-04-29T07:23:07;101198.44;;;9.30;100.00
75460;BME280;64039;53.060;9.342;2023-04-29T07:25:33;101208.88;;;9.31;100.00
75460;BME280;64039;53.060;9.342;2023-04-29T07:27:59;101214.13;;;9.07;100.00
75460;BME280;64039;53.060;9.342;2023-04-29T07:30:24;101218.78;;;9.16;100.00
75460;BME280;64039;53.060;9.342;2023-04-29T07:32:50;101225.22;;;9.27;100.00
75460;BME280;64039;53.060;9.342;2023-04-29T07:35:15;101223.47;;;9.27;100.00
75460;BME280;64039;53.060;9.342;2023-04-29T07:37:41;101237.94;;;9.19;100.00
75460;BME280;64039;53.060;9.342;2023-04-29T07:40:08;101236.69;;;9.08;100.00
75460;BME280;64039;53.060;9.342;2023-04-29T07:42:33;101235.75;;;9.06;100.00
75460;BME280;64039;53.060;9.342;2023-04-29T07:44:58;101238.13;;;9.00;100.00
75460;BME280;64039;53.060;9.342;2023-04-29T07:47:24;101250.28;;;9.01;100.00
75460;BME280;64039;53.060;9.342;2023-04-29T07:49:49;101246.81;;;9.00;100.00
75460;BME280;64039;53.060;9.342;2023-04-29T07:52:15;101253.78;;;9.27;100.00
75460;BME280;64039;53.060;9.342;2023-04-29T07:54:41;101251.72;;;9.44;100.00
75460;BME280;64039;53.060;9.342;2023-04-29T07:57:06;101251.72;;;9.44;100.00
75460;BME280;64039;53.060;9.342;2023-04-29T07:59:32;101256.75;;;9.65;100.00
75460;BME280;64039;53.060;9.342;2023-04-29T08:01:57;101258.03;;;9.78;100.00
75460;BME280;64039;53.060;9.342;2023-04-29T08:04:23;101263.06;;;9.73;100.00
75460;BME280;64039;53.060;9.342;2023-04-29T08:06:49;101265.63;;;9.72;100.00
75460;BME280;64039;53.060;9.342;2023-04-29T08:09:14;101261.97;;;9.67;100.00
75460;BME280;64039;53.060;9.342;2023-04-29T08:11:40;101266.19;;;9.63;100.00
75460;BME280;64039;53.060;9.342;2023-04-29T08:14:06;101274.13;;;9.66;100.00
75460;BME280;64039;53.060;9.342;2023-04-29T08:16:33;101273.47;;;9.73;100.00
75460;BME280;64039;53.060;9.342;2023-04-29T08:18:58;101279.34;;;9.95;100.00
75460;BME280;64039;53.060;9.342;2023-04-29T08:21:23;101277.09;;;10.06;100.00
75460;BME280;64039;53.060;9.342;2023-04-29T08:23:49;101284.78;;;10.03;100.00
75460;BME280;64039;53.060;9.342;2023-04-29T08:26:14;101282.75;;;10.21;100.00
75460;BME280;64039;53.060;9.342;2023-04-29T08:28:40;101291.97;;;10.12;100.00
75460;BME280;64039;53.060;9.342;2023-04-29T08:31:06;101294.41;;;10.34;100.00
75460;BME280;64039;53.060;9.342;2023-04-29T08:33:35;101293.94;;;10.46;100.00
75460;BME280;64039;53.060;9.342;2023-04-29T08:36:01;101292.97;;;10.73;100.00
75460;BME280;64039;53.060;9.342;2023-04-29T08:38:28;101290.72;;;10.87;100.00
75460;BME280;64039;53.060;9.342;2023-04-29T08:40:54;101294.47;;;10.97;100.00
75460;BME280;64039;53.060;9.342;2023-04-29T08:43:20;101299.13;;;11.09;100.00
75460;BME280;64039;53.060;9.342;2023-04-29T08:45:47;101300.91;;;11.10;100.00
75460;BME280;64039;53.060;9.342;2023-04-29T08:48:15;101305.44;;;11.17;100.00
75460;BME280;64039;53.060;9.342;2023-04-29T08:50:41;101311.25;;;11.08;100.00
75460;BME280;64039;53.060;9.342;2023-04-29T08:53:11;101309.56;;;11.09;100.00
75460;BME280;64039;53.060;9.342;2023-04-29T08:55:46;101313.97;;;11.13;100.00
75460;BME280;64039;53.060;9.342;2023-04-29T08:58:13;101315.19;;;11.26;100.00
75460;BME280;64039;53.060;9.342;2023-04-29T09:00:40;101315.56;;;11.06;100.00
75460;BME280;64039;53.060;9.342;2023-04-29T09:03:17;101309.94;;;11.24;100.00
75460;BME280;64039;53.060;9.342;2023-04-29T09:05:48;101317.97;;;11.67;100.00
75460;BME280;64039;53.060;9.342;2023-04-29T09:08:16;101324.00;;;11.98;100.00
75460;BME280;64039;53.060;9.342;2023-04-29T09:10:42;101323.19;;;12.02;100.00
75460;BME280;64039;53.060;9.342;2023-04-29T09:13:21;101324.66;;;12.27;99.90
75460;BME280;64039;53.060;9.342;2023-04-29T09:15:47;101331.66;;;11.92;94.27
75460;BME280;64039;53.060;9.342;2023-04-29T09:18:46;101333.22;;;11.50;100.00
75460;BME280;64039;53.060;9.342;2023-04-29T09:21:12;101335.50;;;11.73;100.00
75460;BME280;64039;53.060;9.342;2023-04-29T09:23:38;101335.94;;;11.55;99.06
75460;BME280;64039;53.060;9.342;2023-04-29T09:26:03;101336.28;;;11.35;100.00
75460;BME280;64039;53.060;9.342;2023-04-29T09:28:29;101339.78;;;11.36;100.00
75460;BME280;64039;53.060;9.342;2023-04-29T09:30:54;101344.63;;;11.22;100.00
75460;BME280;64039;53.060;9.342;2023-04-29T09:33:20;101341.78;;;11.46;100.00
75460;BME280;64039;53.060;9.342;2023-04-29T09:35:45;101340.47;;;11.63;100.00
75460;BME280;64039;53.060;9.342;2023-04-29T09:38:14;101343.09;;;11.97;100.00
75460;BME280;64039;53.060;9.342;2023-04-29T09:40:41;101344.47;;;11.83;98.41
75460;BME280;64039;53.060;9.342;2023-04-29T09:43:14;101338.09;;;12.06;97.93
75460;BME280;64039;53.060;9.342;2023-04-29T09:45:47;101345.66;;;12.34;94.94
75460;BME280;64039;53.060;9.342;2023-04-29T09:48:13;101337.34;;;12.52;96.19
75460;BME280;64039;53.060;9.342;2023-04-29T09:50:42;101342.34;;;12.82;91.53
75460;BME280;64039;53.060;9.342;2023-04-29T09:53:09;101341.59;;;12.89;92.81
75460;BME280;64039;53.060;9.342;2023-04-29T09:55:36;101352.09;;;12.91;100.00
75460;BME280;64039;53.060;9.342;2023-04-29T09:58:01;101345.78;;;12.40;93.74
75460;BME280;64039;53.060;9.342;2023-04-29T10:00:30;101351.44;;;12.58;94.11
75460;BME280;64039;53.060;9.342;2023-04-29T10:03:03;101349.84;;;12.67;89.83
75460;BME280;64039;53.060;9.342;2023-04-29T10:05:30;101357.25;;;12.88;95.14
75460;BME280;64039;53.060;9.342;2023-04-29T10:07:57;101355.50;;;12.88;94.18
75460;BME280;64039;53.060;9.342;2023-04-29T10:10:23;101365.44;;;12.64;93.88
75460;BME280;64039;53.060;9.342;2023-04-29T10:12:52;101359.47;;;12.69;92.36
75460;BME280;64039;53.060;9.342;2023-04-29T10:15:30;101373.47;;;12.73;96.31
75460;BME280;64039;53.060;9.342;2023-04-29T10:18:16;101371.16;;;12.85;90.17
75460;BME280;64039;53.060;9.342;2023-04-29T10:20:45;101366.41;;;13.10;87.61
75460;BME280;64039;53.060;9.342;2023-04-29T10:23:12;101366.78;;;13.29;88.25
75460;BME280;64039;53.060;9.342;2023-04-29T10:25:39;101371.09;;;13.28;88.03
75460;BME280;64039;53.060;9.342;2023-04-29T10:28:09;101371.94;;;13.26;86.74
75460;BME280;64039;53.060;9.342;2023-04-29T10:30:39;101375.47;;;13.29;86.84
75460;BME280;64039;53.060;9.342;2023-04-29T10:33:07;101364.00;;;13.21;85.83
75460;BME280;64039;53.060;9.342;2023-04-29T10:35:35;101367.97;;;13.00;85.70
75460;BME280;64039;53.060;9.342;2023-04-29T10:38:07;101369.75;;;13.03;89.01
75460;BME280;64039;53.060;9.342;2023-04-29T10:40:44;101376.34;;;13.28;82.03
75460;BME280;64039;53.060;9.342;2023-04-29T10:43:11;101368.34;;;13.66;83.48
75460;BME280;64039;53.060;9.342;2023-04-29T10:45:36;101376.09;;;13.16;81.91
75460;BME280;64039;53.060;9.342;2023-04-29T10:53:12;101379.31;;;12.60;79.74
75460;BME280;64039;53.060;9.342;2023-04-29T10:55:41;101378.28;;;12.94;87.20
75460;BME280;64039;53.060;9.342;2023-04-29T11:00:57;101380.69;;;13.74;86.30
75460;BME280;64039;53.060;9.342;2023-04-29T11:06:14;101378.06;;;13.26;83.96
75460;BME280;64039;53.060;9.342;2023-04-29T11:08:40;101375.53;;;12.88;81.56
75460;BME280;64039;53.060;9.342;2023-04-29T11:11:06;101378.53;;;13.07;83.72
75460;BME280;64039;53.060;9.342;2023-04-29T11:13:37;101377.91;;;13.20;82.40
75460;BME280;64039;53.060;9.342;2023-04-29T11:16:06;101379.19;;;12.96;81.04
75460;BME280;64039;53.060;9.342;2023-04-29T11:18:34;101379.22;;;12.98;82.49
75460;BME280;64039;53.060;9.342;2023-04-29T11:23:41;101376.78;;;13.50;78.70
75460;BME280;64039;53.060;9.342;2023-04-29T11:26:09;101375.88;;;14.00;82.04
75460;BME280;64039;53.060;9.342;2023-04-29T11:28:35;101375.47;;;14.30;79.10
75460;BME280;64039;53.060;9.342;2023-04-29T11:31:00;101379.84;;;14.33;72.85
75460;BME280;64039;53.060;9.342;2023-04-29T11:33:31;101379.00;;;13.79;71.03
75460;BME280;64039;53.060;9.342;2023-04-29T11:35:57;101382.13;;;13.58;77.23
75460;BME280;64039;53.060;9.342;2023-04-29T11:38:26;101388.72;;;13.37;75.78
75460;BME280;64039;53.060;9.342;2023-04-29T11:40:54;101386.94;;;13.83;75.96
75460;BME280;64039;53.060;9.342;2023-04-29T11:43:21;101374.91;;;13.95;70.50
75460;BME280;64039;53.060;9.342;2023-04-29T11:45:47;101380.53;;;13.66;71.46
75460;BME280;64039;53.060;9.342;2023-04-29T11:48:19;101383.03;;;13.60;77.25
75460;BME280;64039;53.060;9.342;2023-04-29T11:50:46;101383.78;;;13.52;71.54
75460;BME280;64039;53.060;9.342;2023-04-29T11:53:13;101393.69;;;13.25;75.04
75460;BME280;64039;53.060;9.342;2023-04-29T11:55:41;101390.66;;;13.03;75.87
75460;BME280;64039;53.060;9.342;2023-04-29T11:58:07;101391.50;;;13.02;79.17
75460;BME280;64039;53.060;9.342;2023-04-29T12:00:33;101393.88;;;13.34;77.70
75460;BME280;64039;53.060;9.342;2023-04-29T12:02:59;101395.63;;;13.82;79.76
75460;BME280;64039;53.060;9.342;2023-04-29T12:05:25;101393.75;;;13.74;74.02
75460;BME280;64039;53.060;9.342;2023-04-29T12:07:51;101401.00;;;13.40;72.80
75460;BME280;64039;53.060;9.342;2023-04-29T12:10:16;101397.97;;;13.21;75.09
75460;BME280;64039;53.060;9.342;2023-04-29T12:12:42;101407.13;;;12.99;76.46
75460;BME280;64039;53.060;9.342;2023-04-29T12:15:09;101400.16;;;13.42;78.86
75460;BME280;64039;53.060;9.342;2023-04-29T12:17:35;101406.03;;;13.78;72.22
75460;BME280;64039;53.060;9.342;2023-04-29T12:20:01;101405.91;;;13.70;68.99
75460;BME280;64039;53.060;9.342;2023-04-29T12:22:31;101391.25;;;13.80;68.94
75460;BME280;64039;53.060;9.342;2023-04-29T12:24:56;101391.25;;;14.35;67.84
75460;BME280;64039;53.060;9.342;2023-04-29T12:27:22;101393.22;;;14.53;63.49
75460;BME280;64039;53.060;9.342;2023-04-29T12:29:48;101403.81;;;14.59;68.83
75460;BME280;64039;53.060;9.342;2023-04-29T12:32:17;101407.31;;;14.02;70.89
75460;BME280;64039;53.060;9.342;2023-04-29T12:34:44;101407.78;;;13.79;71.29
75460;BME280;64039;53.060;9.342;2023-04-29T12:37:10;101410.91;;;14.08;72.88
75460;BME280;64039;53.060;9.342;2023-04-29T12:39:37;101411.91;;;14.17;71.56
75460;BME280;64039;53.060;9.342;2023-04-29T12:42:02;101404.19;;;14.26;67.43
75460;BME280;64039;53.060;9.342;2023-04-29T12:44:35;101418.19;;;14.26;66.50
75460;BME280;64039;53.060;9.342;2023-04-29T12:47:11;101412.50;;;14.57;67.71
75460;BME280;64039;53.060;9.342;2023-04-29T12:49:40;101401.56;;;14.86;63.25
75460;BME280;64039;53.060;9.342;2023-04-29T12:52:08;101396.19;;;14.75;61.09
75460;BME280;64039;53.060;9.342;2023-04-29T12:54:41;101404.63;;;14.55;63.51
75460;BME280;64039;53.060;9.342;2023-04-29T12:57:10;101417.34;;;14.29;64.19
75460;BME280;64039;53.060;9.342;2023-04-29T12:59:36;101419.91;;;14.27;60.37
75460;BME280;64039;53.060;9.342;2023-04-29T13:02:02;101413.75;;;14.24;60.95
75460;BME280;64039;53.060;9.342;2023-04-29T13:04:27;101424.38;;;14.33;64.36
75460;BME280;64039;53.060;9.342;2023-04-29T13:06:53;101414.94;;;14.43;62.34
75460;BME280;64039;53.060;9.342;2023-04-29T13:09:25;101419.25;;;15.02;61.07
75460;BME280;64039;53.060;9.342;2023-04-29T13:11:50;101420.59;;;14.71;59.19